createdAt,value
2024-02-19T00:01:19.452Z,80.35
2024-02-19T00:03:49.788Z,80.45
2024-02-19T00:06:17.884Z,80.35
2024-02-19T00:08:45.765Z,79.95
2024-02-19T00:11:15.229Z,79.97
2024-02-19T00:13:43.230Z,80.13
2024-02-19T00:16:11.876Z,80.20
2024-02-19T00:18:40.526Z,80.13
2024-02-19T00:21:08.664Z,80.20
2024-02-19T00:23:39.191Z,80.11
2024-02-19T00:26:07.157Z,80.12
2024-02-19T00:28:35.122Z,79.82
2024-02-19T00:31:03.256Z,79.83
2024-02-19T00:33:32.816Z,79.51
2024-02-19T00:36:01.076Z,79.12
2024-02-19T00:38:29.043Z,79.59
2024-02-19T00:40:57.128Z,79.49
2024-02-19T00:43:25.184Z,79.36
2024-02-19T00:45:53.196Z,79.62
2024-02-19T00:48:21.433Z,79.64
2024-02-19T00:50:50.055Z,79.53
2024-02-19T00:53:18.396Z,78.83
2024-02-19T00:55:46.558Z,79.04
2024-02-19T00:58:14.634Z,79.23
2024-02-19T01:00:42.798Z,79.11
2024-02-19T01:03:12.657Z,79.07
2024-02-19T01:05:40.693Z,78.68
2024-02-19T01:08:08.662Z,78.70
2024-02-19T01:10:36.615Z,78.57
2024-02-19T01:13:04.980Z,78.62
2024-02-19T01:15:32.864Z,78.54
2024-02-19T01:18:00.876Z,78.21
2024-02-19T01:20:29.140Z,78.37
2024-02-19T01:22:57.179Z,78.30
2024-02-19T01:25:26.006Z,78.22
2024-02-19T01:27:54.067Z,78.12
2024-02-19T01:30:22.103Z,78.22
2024-02-19T01:32:50.033Z,78.03
2024-02-19T01:35:18.235Z,78.13
2024-02-19T01:37:46.521Z,77.98
2024-02-19T01:40:16.802Z,77.87
2024-02-19T01:42:44.948Z,77.98
2024-02-19T01:45:27.153Z,77.94
2024-02-19T01:47:59.894Z,77.92
2024-02-19T01:50:33.918Z,77.76
2024-02-19T01:53:10.957Z,77.54
2024-02-19T01:55:41.625Z,77.63
2024-02-19T01:58:12.583Z,77.69
2024-02-19T02:00:41.925Z,77.75
2024-02-19T02:03:13.014Z,77.76
2024-02-19T02:05:41.394Z,77.74
2024-02-19T02:08:10.401Z,77.59
2024-02-19T02:10:38.441Z,77.59
2024-02-19T02:13:06.427Z,77.52
2024-02-19T02:15:34.779Z,77.52
2024-02-19T02:18:02.915Z,77.55
2024-02-19T02:20:32.841Z,77.71
2024-02-19T02:23:01.160Z,77.70
2024-02-19T02:25:29.055Z,77.63
2024-02-19T02:27:58.833Z,77.92
2024-02-19T02:30:27.025Z,77.84
2024-02-19T02:32:57.128Z,77.91
2024-02-19T02:35:25.699Z,78.08
2024-02-19T02:37:53.663Z,77.95
2024-02-19T02:40:22.152Z,77.70
2024-02-19T02:42:50.281Z,77.58
2024-02-19T02:45:18.574Z,77.79
2024-02-19T02:47:46.603Z,77.73
2024-02-19T02:50:14.658Z,77.82
2024-02-19T02:52:43.612Z,77.83
2024-02-19T02:55:11.500Z,77.71
2024-02-19T02:57:39.377Z,77.67
2024-02-19T03:00:09.876Z,77.62
2024-02-19T03:02:37.955Z,77.65
2024-02-19T03:05:06.038Z,77.70
2024-02-19T03:07:34.048Z,77.54
2024-02-19T03:10:02.298Z,77.37
2024-02-19T03:12:30.676Z,77.31
2024-02-19T03:14:58.756Z,77.31
2024-02-19T03:17:26.737Z,77.36
2024-02-19T03:19:54.872Z,77.29
2024-02-19T03:22:25.117Z,77.36
2024-02-19T03:24:53.163Z,77.34
2024-02-19T03:27:21.110Z,77.55
2024-02-19T03:29:49.081Z,77.62
2024-02-19T03:32:17.052Z,77.65
2024-02-19T03:34:45.070Z,77.71
2024-02-19T03:37:13.557Z,77.72
2024-02-19T03:39:41.483Z,77.86
2024-02-19T03:42:09.434Z,77.96
2024-02-19T03:44:37.504Z,78.05
2024-02-19T03:47:05.473Z,77.91
2024-02-19T03:49:33.523Z,77.86
2024-02-19T03:52:01.646Z,77.93
2024-02-19T03:54:29.732Z,77.86
2024-02-19T03:56:57.649Z,77.84
2024-02-19T03:59:25.635Z,78.07
2024-02-19T04:01:53.717Z,78.24
2024-02-19T04:04:21.957Z,78.10
2024-02-19T04:06:51.450Z,78.16
2024-02-19T04:09:20.153Z,78.25
2024-02-19T04:11:48.162Z,78.13
2024-02-19T04:14:16.191Z,78.32
2024-02-19T04:16:44.570Z,78.40
2024-02-19T04:19:12.673Z,78.30
2024-02-19T04:21:47.487Z,78.25
2024-02-19T04:24:15.641Z,78.48
2024-02-19T04:26:43.842Z,78.51
2024-02-19T04:29:12.190Z,78.60
2024-02-19T04:31:42.409Z,78.38
2024-02-19T04:34:10.796Z,78.53
2024-02-19T04:36:38.966Z,78.55
2024-02-19T04:39:07.052Z,78.66
2024-02-19T04:41:35.016Z,78.83
2024-02-19T04:44:03.084Z,79.10
2024-02-19T04:46:34.226Z,79.00
2024-02-19T04:49:02.288Z,78.97
2024-02-19T04:51:30.733Z,78.96
2024-02-19T04:53:58.753Z,78.98
2024-02-19T04:56:26.836Z,79.00
2024-02-19T04:58:56.386Z,78.93
2024-02-19T05:01:24.423Z,78.69
2024-02-19T05:03:54.977Z,78.87
2024-02-19T05:06:23.133Z,78.97
2024-02-19T05:08:51.482Z,79.02
2024-02-19T05:11:19.443Z,78.95
2024-02-19T05:13:49.450Z,79.05
2024-02-19T05:16:17.499Z,79.02
2024-02-19T05:18:46.534Z,78.87
2024-02-19T05:21:15.518Z,79.02
2024-02-19T05:23:43.468Z,79.15
2024-02-19T05:26:11.426Z,78.94
2024-02-19T05:28:39.398Z,79.07
2024-02-19T05:31:07.468Z,78.81
2024-02-19T05:33:35.882Z,78.96
2024-02-19T05:36:03.918Z,79.07
2024-02-19T05:38:31.896Z,78.92
2024-02-19T05:41:01.185Z,79.13
2024-02-19T05:43:29.195Z,79.11
2024-02-19T05:45:57.279Z,79.17
2024-02-19T05:48:25.906Z,79.22
2024-02-19T05:50:53.913Z,79.11
2024-02-19T05:53:21.878Z,79.14
2024-02-19T05:55:50.052Z,79.03
2024-02-19T05:58:18.165Z,79.04
2024-02-19T06:00:46.415Z,78.93
2024-02-19T06:03:14.569Z,79.14
2024-02-19T06:05:42.583Z,79.10
2024-02-19T06:08:10.575Z,79.15
2024-02-19T06:10:38.484Z,79.15
2024-02-19T06:13:06.867Z,79.19
2024-02-19T06:15:34.890Z,79.16
2024-02-19T06:18:03.130Z,79.22
2024-02-19T06:20:31.534Z,79.25
2024-02-19T06:22:59.522Z,79.12
2024-02-19T06:25:27.522Z,79.06
2024-02-19T06:27:55.597Z,79.17
2024-02-19T06:30:23.651Z,79.15
2024-02-19T06:32:51.711Z,78.96
2024-02-19T06:35:19.841Z,78.83
2024-02-19T06:37:49.805Z,78.85
2024-02-19T06:40:17.853Z,78.79
2024-02-19T06:42:45.880Z,78.79
2024-02-19T06:45:13.883Z,78.76
2024-02-19T06:47:44.755Z,78.72
2024-02-19T06:50:12.668Z,78.71
2024-02-19T06:52:44.734Z,78.57
2024-02-19T06:55:16.937Z,78.49
2024-02-19T06:57:45.628Z,78.55
2024-02-19T07:00:14.385Z,78.64
2024-02-19T07:02:42.459Z,78.65
2024-02-19T07:05:10.627Z,78.49
2024-02-19T07:07:39.245Z,78.50
2024-02-19T07:10:08.134Z,78.41
2024-02-19T07:12:36.061Z,78.19
2024-02-19T07:15:04.563Z,78.15
2024-02-19T07:17:32.571Z,78.26
2024-02-19T07:20:00.706Z,78.13
2024-02-19T07:22:29.031Z,78.07
2024-02-19T07:25:06.020Z,77.94
2024-02-19T07:27:42.366Z,77.91
2024-02-19T07:30:12.208Z,77.90
2024-02-19T07:32:40.342Z,77.77
2024-02-19T07:35:08.707Z,77.66
2024-02-19T07:37:37.184Z,77.64
2024-02-19T07:40:06.974Z,77.56
2024-02-19T07:42:34.966Z,77.39
2024-02-19T07:45:03.417Z,77.34
2024-02-19T07:47:31.337Z,77.21
2024-02-19T07:49:59.363Z,77.06
2024-02-19T07:52:27.417Z,77.00
2024-02-19T07:54:55.671Z,76.83
2024-02-19T07:57:23.595Z,76.60
2024-02-19T07:59:51.481Z,76.51
2024-02-19T08:02:19.469Z,76.45
2024-02-19T08:04:47.607Z,76.08
2024-02-19T08:07:15.819Z,76.12
2024-02-19T08:09:44.883Z,76.28
2024-02-19T08:12:14.444Z,76.48
2024-02-19T08:14:42.414Z,75.87
2024-02-19T08:17:10.480Z,75.58
2024-02-19T08:19:38.420Z,75.63
2024-02-19T08:22:06.568Z,75.64
2024-02-19T08:24:34.609Z,75.47
2024-02-19T08:29:55.736Z,75.73
2024-02-19T08:32:23.633Z,74.85
2024-02-19T08:34:51.623Z,74.51
2024-02-19T08:37:20.088Z,74.37
2024-02-19T08:39:48.999Z,74.76
2024-02-19T08:42:16.952Z,75.01
2024-02-19T08:44:44.862Z,74.29
2024-02-19T08:47:12.971Z,74.64
2024-02-19T08:49:42.000Z,74.40
2024-02-19T08:52:10.365Z,74.79
2024-02-19T08:54:38.367Z,74.78
2024-02-19T08:57:06.488Z,75.02
2024-02-19T08:59:35.087Z,75.26
2024-02-19T09:02:03.290Z,75.53
2024-02-19T09:04:31.446Z,75.59
2024-02-19T09:06:59.762Z,75.17
2024-02-19T09:09:27.685Z,75.36
2024-02-19T09:11:55.589Z,75.61
2024-02-19T09:14:23.505Z,75.59
2024-02-19T09:16:51.416Z,75.62
2024-02-19T09:19:19.782Z,76.05
2024-02-19T09:21:47.710Z,76.31
2024-02-19T09:24:15.687Z,76.55
2024-02-19T09:26:43.840Z,76.45
2024-02-19T09:29:11.695Z,76.80
2024-02-19T09:31:39.565Z,76.57
2024-02-19T09:34:07.509Z,76.81
2024-02-19T09:36:35.671Z,76.93
2024-02-19T09:39:03.951Z,77.11
2024-02-19T09:41:34.469Z,77.30
2024-02-19T09:44:02.743Z,77.48
2024-02-19T09:46:31.188Z,77.59
2024-02-19T09:49:02.143Z,78.01
2024-02-19T09:51:37.141Z,78.02
2024-02-19T09:54:10.809Z,77.80
2024-02-19T09:56:39.482Z,78.12
2024-02-19T09:59:08.640Z,78.37
2024-02-19T10:01:36.625Z,78.75
2024-02-19T10:04:07.709Z,79.66
2024-02-19T10:06:38.227Z,79.87
2024-02-19T10:09:08.910Z,80.11
2024-02-19T10:11:40.529Z,80.50
2024-02-19T10:14:10.222Z,80.52
2024-02-19T10:16:38.309Z,81.01
2024-02-19T10:19:07.408Z,80.82
2024-02-19T10:21:36.093Z,80.88
2024-02-19T10:24:04.891Z,80.94
2024-02-19T10:26:33.037Z,81.57
2024-02-19T10:29:01.229Z,81.35
2024-02-19T10:31:29.766Z,81.44
2024-02-19T10:33:58.158Z,81.79
2024-02-19T10:36:26.658Z,81.48
2024-02-19T10:38:54.926Z,82.08
2024-02-19T10:41:25.149Z,82.25
2024-02-19T10:43:55.626Z,81.95
2024-02-19T10:46:25.648Z,82.30
2024-02-19T10:48:55.990Z,82.44
2024-02-19T10:51:25.901Z,82.84
2024-02-19T10:54:05.750Z,82.78
2024-02-19T10:56:43.567Z,82.40
2024-02-19T10:59:12.555Z,82.65
2024-02-19T11:01:46.278Z,82.21
2024-02-19T11:04:17.803Z,82.21
2024-02-19T11:06:52.141Z,83.01
2024-02-19T11:09:28.608Z,83.83
2024-02-19T11:12:00.419Z,83.59
2024-02-19T11:14:34.546Z,83.28
2024-02-19T11:17:03.996Z,83.16
2024-02-19T11:19:41.622Z,83.45
2024-02-19T11:22:15.284Z,83.95
2024-02-19T11:24:43.414Z,84.23
2024-02-19T11:27:13.999Z,84.81
2024-02-19T11:29:47.625Z,85.08
2024-02-19T11:32:23.443Z,85.04
2024-02-19T11:34:52.856Z,84.68
2024-02-19T11:37:21.869Z,84.46
2024-02-19T11:39:50.389Z,84.30
2024-02-19T11:42:19.753Z,84.29
2024-02-19T11:44:48.776Z,84.39
2024-02-19T11:47:17.913Z,84.09
2024-02-19T11:49:47.442Z,84.45
2024-02-19T11:52:16.285Z,84.67
2024-02-19T11:54:44.960Z,84.27
2024-02-19T11:57:15.279Z,84.33
2024-02-19T11:59:46.839Z,84.66
2024-02-19T12:02:15.034Z,84.42
2024-02-19T12:04:43.149Z,84.82
2024-02-19T12:07:11.930Z,84.66
2024-02-19T12:09:41.444Z,84.77
2024-02-19T12:12:11.373Z,85.10
2024-02-19T12:14:40.027Z,85.12
2024-02-19T12:17:10.905Z,85.05
2024-02-19T12:19:38.925Z,85.26
2024-02-19T12:22:08.038Z,85.23
2024-02-19T12:24:36.222Z,85.64
2024-02-19T12:27:04.742Z,85.14
2024-02-19T12:29:32.703Z,84.76
2024-02-19T12:32:00.928Z,85.06
2024-02-19T12:34:29.101Z,84.91
2024-02-19T12:36:59.518Z,84.78
2024-02-19T12:39:27.852Z,84.81
2024-02-19T12:41:56.582Z,84.68
2024-02-19T12:44:25.373Z,84.54
2024-02-19T12:46:54.300Z,85.06
2024-02-19T12:49:22.667Z,85.24
2024-02-19T12:51:52.797Z,85.37
2024-02-19T12:54:22.193Z,85.26
2024-02-19T12:56:50.315Z,84.98
2024-02-19T12:59:18.373Z,85.01
2024-02-19T13:01:46.501Z,85.33
2024-02-19T13:04:14.470Z,85.13
2024-02-19T13:06:42.502Z,85.46
2024-02-19T13:09:12.117Z,85.62
2024-02-19T13:11:40.353Z,85.52
2024-02-19T13:14:08.548Z,85.54
2024-02-19T13:16:36.736Z,85.57
2024-02-19T13:19:04.853Z,85.76
2024-02-19T13:21:32.762Z,85.82
2024-02-19T13:24:00.798Z,85.86
2024-02-19T13:26:28.999Z,85.89
2024-02-19T13:28:56.996Z,85.77
2024-02-19T13:31:25.462Z,85.87
2024-02-19T13:33:53.492Z,85.77
2024-02-19T13:36:21.563Z,85.97
2024-02-19T13:38:49.541Z,85.92
2024-02-19T13:41:17.638Z,86.12
2024-02-19T13:43:46.155Z,86.40
2024-02-19T13:46:14.960Z,86.20
2024-02-19T13:48:43.691Z,86.47
2024-02-19T13:51:11.856Z,86.87
2024-02-19T13:53:40.089Z,87.04
2024-02-19T13:56:08.075Z,87.22
2024-02-19T13:58:36.187Z,87.10
2024-02-19T14:01:06.250Z,86.56
2024-02-19T14:03:34.670Z,86.67
2024-02-19T14:06:03.294Z,86.68
2024-02-19T14:08:31.529Z,86.69
2024-02-19T14:11:00.743Z,86.58
2024-02-19T14:13:28.851Z,86.63
2024-02-19T14:15:57.685Z,86.95
2024-02-19T14:18:28.716Z,86.81
2024-02-19T14:20:57.992Z,86.78
2024-02-19T14:23:26.289Z,86.99
2024-02-19T14:25:54.685Z,86.98
2024-02-19T14:28:22.853Z,86.86
2024-02-19T14:30:50.899Z,86.99
2024-02-19T14:33:19.421Z,87.21
2024-02-19T14:35:47.668Z,87.10
2024-02-19T14:38:16.569Z,87.31
2024-02-19T14:40:45.000Z,87.63
2024-02-19T14:43:15.573Z,87.45
2024-02-19T14:45:43.801Z,87.57
2024-02-19T14:48:12.061Z,87.53
2024-02-19T14:50:40.294Z,87.63
2024-02-19T14:53:09.185Z,87.70
2024-02-19T14:55:37.265Z,87.75
2024-02-19T14:58:06.761Z,87.80
2024-02-19T15:00:36.601Z,88.03
2024-02-19T15:03:11.396Z,88.39
2024-02-19T15:05:41.345Z,88.10
2024-02-19T15:08:09.734Z,88.10
2024-02-19T15:10:37.783Z,88.15
2024-02-19T15:13:05.931Z,88.09
2024-02-19T15:15:34.068Z,88.16
2024-02-19T15:18:05.104Z,88.36
2024-02-19T15:20:33.253Z,88.19
2024-02-19T15:23:03.605Z,88.27
2024-02-19T15:25:31.598Z,88.34
2024-02-19T15:27:59.722Z,88.47
2024-02-19T15:30:28.032Z,88.81
2024-02-19T15:32:56.108Z,88.77
2024-02-19T15:35:26.399Z,88.83
2024-02-19T15:37:54.394Z,88.84
2024-02-19T15:40:24.328Z,88.93
2024-02-19T15:42:52.557Z,89.01
2024-02-19T15:45:20.721Z,89.04
2024-02-19T15:47:49.161Z,89.13
2024-02-19T15:50:17.593Z,89.20
2024-02-19T15:52:54.965Z,89.23
2024-02-19T15:55:26.618Z,89.31
2024-02-19T15:57:54.579Z,89.42
2024-02-19T16:00:22.685Z,89.63
2024-02-19T16:02:50.562Z,89.73
2024-02-19T16:05:19.040Z,89.83
2024-02-19T16:07:46.980Z,90.10
2024-02-19T16:10:15.167Z,90.08
2024-02-19T16:12:43.053Z,90.12
2024-02-19T16:15:11.206Z,90.24
2024-02-19T16:17:39.082Z,90.42
2024-02-19T16:20:09.010Z,90.57
2024-02-19T16:22:37.488Z,90.60
2024-02-19T16:25:08.230Z,90.59
2024-02-19T16:27:37.178Z,90.61
2024-02-19T16:30:08.229Z,90.62
2024-02-19T16:32:38.587Z,90.59
2024-02-19T16:35:07.409Z,90.58
2024-02-19T16:37:36.565Z,90.60
2024-02-19T16:40:06.014Z,90.58
2024-02-19T16:42:40.298Z,90.56
2024-02-19T16:45:10.097Z,90.60
2024-02-19T16:47:40.570Z,90.55
2024-02-19T16:50:09.089Z,90.50
2024-02-19T16:52:37.797Z,90.47
2024-02-19T16:55:07.804Z,90.42
2024-02-19T16:57:38.166Z,90.38
2024-02-19T17:00:09.431Z,90.35
2024-02-19T17:02:37.488Z,90.32
2024-02-19T17:05:06.463Z,90.32
2024-02-19T17:07:34.743Z,90.30
2024-02-19T17:10:07.637Z,90.32
2024-02-19T17:12:35.604Z,90.34
2024-02-19T17:15:04.060Z,90.38
2024-02-19T17:17:32.343Z,90.39
2024-02-19T17:20:01.209Z,90.42
2024-02-19T17:22:29.761Z,90.43
2024-02-19T17:24:57.772Z,90.43
2024-02-19T17:27:25.960Z,90.45
2024-02-19T17:29:53.788Z,90.48
2024-02-19T17:32:23.018Z,90.56
2024-02-19T17:34:52.888Z,90.61
2024-02-19T17:37:21.918Z,90.68
2024-02-19T17:39:50.794Z,90.72
2024-02-19T17:42:20.744Z,90.67
2024-02-19T17:44:48.645Z,90.63
2024-02-19T17:47:16.587Z,90.59
2024-02-19T17:49:44.589Z,90.58
2024-02-19T17:52:14.087Z,90.60
2024-02-19T17:54:42.464Z,90.69
2024-02-19T17:57:16.045Z,90.73
2024-02-19T17:59:44.565Z,90.86
2024-02-19T18:02:14.096Z,90.93
2024-02-19T18:04:47.040Z,90.90
2024-02-19T18:07:15.126Z,90.88
2024-02-19T18:09:43.039Z,90.83
2024-02-19T18:12:13.734Z,90.87
2024-02-19T18:14:41.840Z,90.83
2024-02-19T18:17:10.122Z,90.84
2024-02-19T18:19:38.171Z,90.83
2024-02-19T18:22:08.547Z,90.78
2024-02-19T18:24:37.217Z,90.81
2024-02-19T18:27:08.275Z,90.83
2024-02-19T18:29:36.985Z,90.95
2024-02-19T18:32:07.910Z,90.96
2024-02-19T18:34:37.036Z,90.97
2024-02-19T18:37:06.216Z,91.02
2024-02-19T18:39:34.323Z,91.12
2024-02-19T18:42:02.606Z,91.11
2024-02-19T18:44:30.575Z,91.03
2024-02-19T18:47:01.262Z,90.91
2024-02-19T18:49:33.434Z,90.74
2024-02-19T18:52:03.159Z,90.66
2024-02-19T18:54:32.848Z,90.62
2024-02-19T18:57:02.521Z,90.48
2024-02-19T18:59:32.278Z,90.36
2024-02-19T19:02:05.339Z,90.16
2024-02-19T19:04:35.547Z,90.03
2024-02-19T19:07:03.756Z,90.03
2024-02-19T19:09:32.602Z,90.07
2024-02-19T19:12:05.271Z,90.19
2024-02-19T19:14:35.390Z,90.24
2024-02-19T19:17:04.141Z,90.29
2024-02-19T19:19:32.354Z,90.28
2024-02-19T19:22:00.621Z,90.26
2024-02-19T19:24:28.616Z,90.20
2024-02-19T19:26:56.844Z,90.01
2024-02-19T19:29:25.230Z,89.75
2024-02-19T19:31:53.712Z,88.99
2024-02-19T19:34:24.182Z,88.47
2024-02-19T19:36:52.175Z,88.28
2024-02-19T19:39:20.104Z,88.31
2024-02-19T19:41:48.134Z,88.31
2024-02-19T19:44:18.595Z,88.34
2024-02-19T19:46:46.629Z,88.33
2024-02-19T19:49:18.385Z,88.39
2024-02-19T19:51:46.816Z,88.53
2024-02-19T19:54:15.071Z,88.64
2024-02-19T19:56:43.372Z,88.75
2024-02-19T19:59:11.784Z,88.83
2024-02-19T20:01:39.914Z,88.84
2024-02-19T20:04:08.187Z,88.94
2024-02-19T20:06:36.965Z,88.97
2024-02-19T20:09:05.097Z,89.01
2024-02-19T20:11:33.211Z,89.10
2024-02-19T20:14:01.874Z,89.09
2024-02-19T20:16:29.998Z,89.11
2024-02-19T20:18:58.484Z,89.10
2024-02-19T20:21:27.074Z,89.08
2024-02-19T20:23:55.199Z,89.09
2024-02-19T20:26:28.850Z,89.16
2024-02-19T20:28:56.902Z,89.20
2024-02-19T20:31:25.050Z,89.27
2024-02-19T20:33:54.002Z,89.23
2024-02-19T20:36:22.036Z,89.28
2024-02-19T20:38:50.378Z,89.37
2024-02-19T20:41:18.521Z,89.36
2024-02-19T20:43:46.525Z,89.37
2024-02-19T20:46:14.481Z,89.41
2024-02-19T20:48:42.409Z,89.48
2024-02-19T20:51:10.390Z,89.53
2024-02-19T20:53:39.063Z,89.74
2024-02-19T20:56:06.997Z,89.76
2024-02-19T20:58:35.018Z,89.85
2024-02-19T21:01:03.263Z,89.98
2024-02-19T21:03:40.029Z,90.09
2024-02-19T21:06:11.444Z,90.13
2024-02-19T21:08:41.935Z,90.16
2024-02-19T21:11:13.394Z,90.24
2024-02-19T21:13:41.504Z,90.36
2024-02-19T21:16:11.317Z,90.39
2024-02-19T21:18:46.959Z,90.55
2024-02-19T21:21:29.653Z,90.47
2024-02-19T21:24:03.992Z,90.42
2024-02-19T21:26:32.763Z,90.44
2024-02-19T21:29:00.804Z,90.52
2024-02-19T21:31:28.755Z,90.52
2024-02-19T21:33:57.627Z,90.40
2024-02-19T21:36:25.928Z,90.36
2024-02-19T21:38:56.048Z,90.28
2024-02-19T21:41:24.371Z,90.13
2024-02-19T21:43:52.243Z,90.11
2024-02-19T21:46:20.384Z,89.88
2024-02-19T21:48:48.663Z,89.73
2024-02-19T21:51:16.649Z,89.51
2024-02-19T21:53:44.579Z,89.31
2024-02-19T21:56:14.595Z,89.23
2024-02-19T21:58:42.564Z,89.11
2024-02-19T22:01:10.591Z,89.11
2024-02-19T22:03:38.852Z,89.03
2024-02-19T22:06:08.328Z,88.86
2024-02-19T22:08:36.484Z,88.74
2024-02-19T22:11:04.678Z,88.62
2024-02-19T22:13:32.744Z,88.65
2024-02-19T22:16:00.880Z,88.73
2024-02-19T22:18:29.039Z,88.83
2024-02-19T22:20:57.468Z,88.95
2024-02-19T22:23:25.425Z,88.98
2024-02-19T22:25:54.109Z,88.97
2024-02-19T22:28:22.077Z,89.00
2024-02-19T22:30:50.104Z,88.95
2024-02-19T22:33:18.538Z,88.91
2024-02-19T22:35:47.735Z,88.93
2024-02-19T22:38:15.700Z,88.93
2024-02-19T22:40:43.845Z,88.86
2024-02-19T22:43:12.504Z,88.71
2024-02-19T22:45:41.597Z,88.40
2024-02-19T22:48:10.385Z,88.20
2024-02-19T22:50:39.352Z,88.20
2024-02-19T22:53:08.142Z,88.18
2024-02-19T22:55:36.835Z,88.12
2024-02-19T22:58:05.512Z,88.12
2024-02-19T23:00:37.039Z,88.14
2024-02-19T23:03:06.504Z,88.21
2024-02-19T23:05:35.181Z,88.36
2024-02-19T23:08:03.369Z,88.42
2024-02-19T23:10:31.503Z,88.48
2024-02-19T23:12:59.839Z,88.54
2024-02-19T23:15:27.952Z,88.62
2024-02-19T23:17:56.253Z,88.81
2024-02-19T23:20:24.865Z,89.15
2024-02-19T23:22:53.021Z,89.43
2024-02-19T23:25:21.338Z,89.63
2024-02-19T23:27:49.593Z,89.97
2024-02-19T23:30:18.996Z,90.31
2024-02-19T23:32:47.129Z,90.25
2024-02-19T23:35:15.727Z,90.25
2024-02-19T23:37:43.637Z,90.31
2024-02-19T23:40:18.720Z,90.37
2024-02-19T23:42:47.950Z,90.48
2024-02-19T23:45:15.972Z,90.53
2024-02-19T23:47:44.468Z,90.69
2024-02-19T23:50:12.699Z,90.78
2024-02-19T23:52:41.402Z,91.10
2024-02-19T23:55:11.137Z,91.07
2024-02-19T23:57:39.629Z,91.10
